Portada
METAR-TAF:

METAR-TAF

Aeropuertos :

Al Wajh, Arabia Saudita

latitud: 26-12N, longitud: 036-28E, altitud: 20 m

Observación

El informe se hizo hace 44 minutos, a las 11:00 UTC
Viento 14 kt del oeste
Temperatura 25°C
Humedad 54%
Presión 1016 hPa
Visibilidad 10 km o más
sin nubes por debajo de 1500 m y sin presencia de cumulonimbus.

METAR: OEWJ 271100Z 28014KT CAVOK 25/15 Q1016 NOSIG

Hora: 14:44 (11:44 UTC)

Pronóstico

El informe se hizo hace 44 minutos, a las 11:00 UTC
Pronóstico válido del 27 a las 12 UTC al 28 a las 18 UTC
Viento 15 kt del norte-noroeste
Visibilidad: 8000 m
Evolucionando progresivamente
del 27 a las 20 UTC al 27 a las 22 UTC
Viento 3 kt con dirección variable

TAF: OEWJ 271100Z 2712/2818 33015KT 8000 NSC BECMG 2720/2722 VRB03KT

Observaciones y pronósticos meteorológicos de más de 4000 aeropuertos (mensajes METAR y TAF).

Los puntos amarillos y rojos representan las estaciones disponibles.

Ponga el ratón en el punto deseado para ver el nombre de la estación.

Haga clic para ver las observaciones y los pronósticos meteorológicos.

Para cambiar el mapa : haga clic en los botones verdes con una cruz de color negro para hacer un zoom, en el botón verde con un guión para alejar o en las flechas verdes para mapas adyacentes.


METAR-TAF: